createdAt,value
2018-05-29T00:00:16.027Z,11.53
2018-05-29T00:02:51.689Z,11.77
2018-05-29T00:05:28.288Z,11.90
2018-05-29T00:08:03.914Z,10.90
2018-05-29T00:10:40.513Z,11.27
2018-05-29T00:13:16.527Z,11.43
2018-05-29T00:15:52.591Z,12.63
2018-05-29T00:18:28.281Z,11.33
2018-05-29T00:21:03.562Z,14.13
2018-05-29T00:23:39.207Z,12.27
2018-05-29T00:26:16.516Z,13.47
2018-05-29T00:28:52.377Z,13.80
2018-05-29T00:31:28.915Z,11.90
2018-05-29T00:34:06.743Z,11.93
2018-05-29T00:36:42.885Z,13.40
2018-05-29T00:39:18.246Z,12.13
2018-05-29T00:41:53.176Z,13.10
2018-05-29T00:44:28.316Z,13.73
2018-05-29T00:47:03.291Z,13.70
2018-05-29T00:49:40.637Z,13.47
2018-05-29T00:52:15.773Z,13.13
2018-05-29T00:55:02.801Z,14.77
2018-05-29T00:57:39.391Z,12.80
2018-05-29T01:00:15.113Z,14.73
2018-05-29T01:02:51.891Z,12.33
2018-05-29T01:05:28.367Z,15.33
2018-05-29T01:08:03.402Z,16.23
2018-05-29T01:10:39.671Z,15.37
2018-05-29T01:13:16.059Z,16.43
2018-05-29T01:15:52.023Z,14.13
2018-05-29T01:18:28.255Z,14.83
2018-05-29T01:21:06.015Z,14.60
2018-05-29T01:23:42.154Z,14.33
2018-05-29T01:26:18.785Z,15.07
2018-05-29T01:28:54.542Z,15.03
2018-05-29T01:31:30.587Z,14.17
2018-05-29T01:34:06.077Z,13.87
2018-05-29T01:36:42.752Z,14.67
2018-05-29T01:39:19.795Z,14.97
2018-05-29T01:41:55.137Z,16.40
2018-05-29T01:44:32.949Z,13.83
2018-05-29T01:47:09.179Z,14.47
2018-05-29T01:49:44.757Z,15.10
2018-05-29T01:52:19.735Z,14.17
2018-05-29T01:54:55.515Z,13.83
2018-05-29T01:57:32.003Z,12.93
2018-05-29T02:00:06.985Z,12.80
2018-05-29T02:02:42.688Z,14.50
2018-05-29T02:05:19.365Z,13.30
2018-05-29T02:07:55.011Z,14.03
2018-05-29T02:10:30.254Z,12.80
2018-05-29T02:13:05.698Z,12.33
2018-05-29T02:15:40.673Z,12.63
2018-05-29T02:18:16.380Z,11.93
2018-05-29T02:20:53.466Z,12.57
2018-05-29T02:23:30.347Z,12.07
2018-05-29T02:26:06.550Z,10.70
2018-05-29T02:28:42.446Z,11.87
2018-05-29T02:31:18.122Z,10.10
2018-05-29T02:33:53.557Z,12.80
2018-05-29T02:36:28.250Z,10.80
2018-05-29T02:39:03.116Z,10.33
2018-05-29T02:41:38.862Z,9.67
2018-05-29T02:44:15.206Z,10.30
2018-05-29T02:46:50.366Z,12.40
2018-05-29T02:49:25.299Z,12.20
2018-05-29T02:52:01.152Z,14.13
2018-05-29T02:54:37.527Z,11.73
2018-05-29T02:57:13.481Z,14.83
2018-05-29T02:59:48.308Z,13.47
2018-05-29T03:02:23.959Z,13.17
2018-05-29T03:04:59.710Z,12.93
2018-05-29T03:07:36.790Z,14.27
2018-05-29T03:10:12.035Z,12.83
2018-05-29T03:12:46.964Z,14.50
2018-05-29T03:15:22.823Z,12.10
2018-05-29T03:17:58.572Z,10.20
2018-05-29T03:20:33.417Z,13.17
2018-05-29T03:23:09.156Z,13.53
2018-05-29T03:25:47.065Z,12.00
2018-05-29T03:28:21.887Z,12.43
2018-05-29T03:30:58.977Z,14.73
2018-05-29T03:33:34.843Z,13.27
2018-05-29T03:36:09.975Z,14.30
2018-05-29T03:38:46.332Z,12.37
2018-05-29T03:41:21.981Z,13.77
2018-05-29T03:43:57.202Z,14.97
2018-05-29T03:46:32.354Z,13.83
2018-05-29T03:49:09.246Z,12.60
2018-05-29T03:51:45.087Z,14.37
2018-05-29T03:54:20.329Z,15.87
2018-05-29T03:56:56.906Z,13.53
2018-05-29T03:59:31.840Z,13.77
2018-05-29T04:02:07.672Z,14.70
2018-05-29T04:04:42.531Z,15.37
2018-05-29T04:07:17.249Z,16.50
2018-05-29T04:09:52.094Z,17.27
2018-05-29T04:12:28.107Z,14.83
2018-05-29T04:15:03.995Z,16.20
2018-05-29T04:17:39.437Z,18.77
2018-05-29T04:20:15.086Z,13.67
2018-05-29T04:22:49.919Z,13.00
2018-05-29T04:25:25.421Z,12.97
2018-05-29T04:28:00.062Z,11.63
2018-05-29T04:30:34.930Z,12.00
2018-05-29T04:33:09.849Z,10.70
2018-05-29T04:35:45.703Z,10.10
2018-05-29T04:38:21.353Z,13.30
2018-05-29T04:40:57.821Z,10.63
2018-05-29T04:43:33.066Z,9.50
2018-05-29T04:46:08.722Z,9.93
2018-05-29T04:48:44.316Z,10.33
2018-05-29T04:51:19.402Z,10.97
2018-05-29T04:53:55.054Z,12.53
2018-05-29T04:56:30.701Z,9.43
2018-05-29T04:59:05.535Z,10.43
2018-05-29T05:01:41.176Z,12.10
2018-05-29T05:04:16.013Z,11.57
2018-05-29T05:06:51.862Z,10.63
2018-05-29T05:09:26.698Z,10.37
2018-05-29T05:12:01.725Z,9.80
2018-05-29T05:14:37.994Z,10.50
2018-05-29T05:17:13.131Z,10.00
2018-05-29T05:19:50.026Z,8.93
2018-05-29T05:22:25.654Z,9.93
2018-05-29T05:25:02.225Z,7.83
2018-05-29T05:27:37.470Z,9.60
2018-05-29T05:30:13.367Z,8.10
2018-05-29T05:32:50.095Z,8.93
2018-05-29T05:35:24.881Z,7.37
2018-05-29T05:38:05.125Z,8.27
2018-05-29T05:40:40.424Z,7.93
2018-05-29T05:43:16.083Z,8.20
2018-05-29T05:45:52.751Z,7.50
2018-05-29T05:48:27.692Z,7.73
2018-05-29T05:51:03.717Z,7.30
2018-05-29T05:53:39.457Z,7.50
2018-05-29T05:56:14.773Z,7.60
2018-05-29T05:58:50.280Z,13.87
2018-05-29T06:01:26.306Z,12.73
2018-05-29T06:04:02.398Z,7.30
2018-05-29T06:06:37.540Z,8.30
2018-05-29T06:09:13.498Z,6.50
2018-05-29T06:11:49.100Z,7.40
2018-05-29T06:14:24.904Z,8.40
2018-05-29T06:17:00.540Z,7.93
2018-05-29T06:19:40.287Z,7.20
2018-05-29T06:22:16.699Z,7.90
2018-05-29T06:24:52.208Z,5.90
2018-05-29T06:27:28.826Z,6.80
2018-05-29T06:30:04.665Z,7.60
2018-05-29T06:32:39.831Z,5.20
2018-05-29T06:35:16.337Z,6.10
2018-05-29T06:37:51.170Z,6.50
2018-05-29T06:40:26.203Z,7.33
2018-05-29T06:43:02.567Z,6.20
2018-05-29T06:45:38.426Z,8.33
2018-05-29T06:48:14.380Z,9.20
2018-05-29T06:50:49.149Z,6.20
2018-05-29T06:53:24.039Z,8.00
2018-05-29T06:56:00.711Z,6.00
2018-05-29T06:58:35.748Z,7.30
2018-05-29T07:01:12.014Z,6.47
2018-05-29T07:03:47.255Z,6.47
2018-05-29T07:06:23.827Z,6.33
2018-05-29T07:08:59.475Z,5.87
2018-05-29T07:11:34.711Z,5.27
2018-05-29T07:14:10.975Z,5.50
2018-05-29T07:16:45.815Z,6.40
2018-05-29T07:19:20.748Z,6.03
2018-05-29T07:21:56.356Z,4.70
2018-05-29T07:24:32.142Z,5.50
2018-05-29T07:27:07.618Z,5.53
2018-05-29T07:29:43.336Z,4.73
2018-05-29T07:32:18.373Z,6.40
2018-05-29T07:34:53.407Z,5.30
2018-05-29T07:37:29.877Z,4.43
2018-05-29T07:40:04.913Z,4.10
2018-05-29T07:42:40.673Z,4.70
2018-05-29T07:45:15.739Z,4.00
2018-05-29T07:47:51.763Z,4.00
2018-05-29T07:50:27.510Z,3.97
2018-05-29T07:53:03.163Z,3.40
2018-05-29T07:55:39.632Z,4.30
2018-05-29T07:58:14.568Z,3.10
2018-05-29T08:00:50.155Z,2.43
2018-05-29T08:03:25.694Z,3.33
2018-05-29T08:06:01.394Z,2.87
2018-05-29T08:08:36.648Z,4.67
2018-05-29T08:11:11.993Z,2.77
2018-05-29T08:13:46.844Z,3.47
2018-05-29T08:16:21.756Z,3.17
2018-05-29T08:18:57.507Z,3.93
2018-05-29T08:21:33.263Z,3.10
2018-05-29T08:24:09.625Z,2.97
2018-05-29T08:26:44.659Z,3.40
2018-05-29T08:29:20.517Z,2.30
2018-05-29T08:31:55.788Z,2.67
2018-05-29T08:34:30.518Z,2.40
2018-05-29T08:37:05.274Z,3.00
2018-05-29T08:39:43.693Z,3.00
2018-05-29T08:42:18.749Z,2.93
2018-05-29T08:44:54.495Z,2.50
2018-05-29T08:47:30.265Z,3.27
2018-05-29T08:50:06.132Z,3.17
2018-05-29T08:52:41.779Z,3.17
2018-05-29T08:55:17.648Z,3.23
2018-05-29T08:57:53.277Z,3.30
2018-05-29T09:00:28.310Z,2.37
2018-05-29T09:03:04.874Z,2.73
2018-05-29T09:05:41.265Z,3.60
2018-05-29T09:08:15.950Z,3.13
2018-05-29T09:10:50.909Z,2.37
2018-05-29T09:13:26.535Z,2.87
2018-05-29T09:16:02.091Z,2.77
2018-05-29T09:18:36.915Z,2.90
2018-05-29T09:21:11.613Z,1.87
2018-05-29T09:23:46.271Z,2.30
2018-05-29T09:26:21.037Z,2.47
2018-05-29T09:28:55.788Z,2.97
2018-05-29T09:31:33.629Z,3.57
2018-05-29T09:34:08.790Z,2.07
2018-05-29T09:36:44.645Z,2.60
2018-05-29T09:39:20.499Z,2.10
2018-05-29T09:41:56.758Z,2.17
2018-05-29T09:44:32.719Z,3.30
2018-05-29T09:47:12.236Z,2.23
2018-05-29T09:49:47.496Z,2.67
2018-05-29T09:52:22.511Z,2.50
2018-05-29T09:54:58.708Z,2.43
2018-05-29T09:57:33.869Z,1.90
2018-05-29T10:00:09.328Z,3.33
2018-05-29T10:02:45.027Z,2.10
2018-05-29T10:05:21.088Z,2.37
2018-05-29T10:07:55.966Z,3.53
2018-05-29T10:10:31.722Z,3.20
2018-05-29T10:13:07.242Z,2.80
2018-05-29T10:15:42.040Z,1.90
2018-05-29T10:18:16.800Z,1.93
2018-05-29T10:20:52.382Z,3.03
2018-05-29T10:23:27.213Z,2.03
2018-05-29T10:26:02.289Z,2.70
2018-05-29T10:28:37.893Z,2.13
2018-05-29T10:31:13.555Z,2.97
2018-05-29T10:33:49.235Z,3.13
2018-05-29T10:36:25.093Z,1.50
2018-05-29T10:39:00.358Z,2.30
2018-05-29T10:41:36.182Z,2.53
2018-05-29T10:44:12.518Z,2.30
2018-05-29T10:46:47.385Z,2.60
2018-05-29T10:49:22.070Z,2.43
2018-05-29T10:51:57.689Z,2.60
2018-05-29T10:54:33.407Z,1.87
2018-05-29T10:57:08.238Z,2.27
2018-05-29T10:59:42.977Z,1.90
2018-05-29T11:02:17.695Z,1.80
2018-05-29T11:04:54.369Z,1.70
2018-05-29T11:07:29.405Z,2.30
2018-05-29T11:10:05.872Z,2.40
2018-05-29T11:12:40.702Z,2.63
2018-05-29T11:15:16.454Z,4.00
2018-05-29T11:17:51.197Z,1.93
2018-05-29T11:20:26.938Z,2.20
2018-05-29T11:23:02.390Z,1.67
2018-05-29T11:25:38.115Z,2.37
2018-05-29T11:28:12.962Z,3.00
2018-05-29T11:30:48.612Z,2.17
2018-05-29T11:33:24.157Z,2.63
2018-05-29T11:35:59.151Z,3.93
2018-05-29T11:38:35.543Z,2.70
2018-05-29T11:41:10.876Z,2.57
2018-05-29T11:43:48.910Z,2.53
2018-05-29T11:46:23.742Z,1.70
2018-05-29T11:48:59.416Z,2.20
2018-05-29T11:51:34.203Z,2.37
2018-05-29T11:54:09.882Z,2.83
2018-05-29T11:56:44.697Z,2.40
2018-05-29T11:59:20.865Z,2.90
2018-05-29T12:01:55.754Z,2.30
2018-05-29T12:04:31.272Z,2.57
2018-05-29T12:07:06.201Z,2.73
2018-05-29T12:09:41.929Z,2.17
2018-05-29T12:12:28.465Z,5.30
2018-05-29T12:15:03.951Z,2.23
2018-05-29T12:17:39.112Z,2.00
2018-05-29T12:20:15.475Z,2.10
2018-05-29T12:22:51.231Z,2.33
2018-05-29T12:25:27.491Z,2.67
2018-05-29T12:28:02.997Z,2.17
2018-05-29T12:30:38.587Z,2.77
2018-05-29T12:33:14.796Z,3.00
2018-05-29T12:35:50.238Z,2.67
2018-05-29T12:38:25.835Z,5.10
2018-05-29T12:41:00.674Z,1.90
2018-05-29T12:43:36.528Z,3.20
2018-05-29T12:46:11.998Z,2.13
2018-05-29T12:48:46.909Z,2.10
2018-05-29T12:51:22.658Z,2.93
2018-05-29T12:53:58.323Z,1.90
2018-05-29T12:56:33.296Z,2.47
2018-05-29T12:59:09.769Z,3.17
2018-05-29T13:01:44.743Z,2.17
2018-05-29T13:04:20.398Z,2.53
2018-05-29T13:06:55.580Z,2.27
2018-05-29T13:09:31.286Z,3.73
2018-05-29T13:12:06.680Z,3.60
2018-05-29T13:14:42.378Z,3.10
2018-05-29T13:17:17.018Z,3.33
2018-05-29T13:19:52.652Z,2.40
2018-05-29T13:22:28.216Z,2.13
2018-05-29T13:25:03.118Z,2.30
2018-05-29T13:27:38.789Z,2.50
2018-05-29T13:30:13.880Z,3.47
2018-05-29T13:32:50.183Z,3.67
2018-05-29T13:35:25.525Z,2.30
2018-05-29T13:38:00.972Z,2.30
2018-05-29T13:40:36.009Z,3.20
2018-05-29T13:43:11.218Z,2.50
2018-05-29T13:45:45.973Z,2.30
2018-05-29T13:48:20.707Z,2.17
2018-05-29T13:50:55.596Z,2.40
2018-05-29T13:53:30.185Z,3.60
2018-05-29T13:56:06.019Z,2.60
2018-05-29T13:58:41.158Z,3.13
2018-05-29T14:01:16.089Z,2.03
2018-05-29T14:03:50.816Z,2.97
2018-05-29T14:06:26.528Z,2.10
2018-05-29T14:09:01.559Z,2.90
2018-05-29T14:11:38.439Z,2.50
2018-05-29T14:14:14.480Z,2.20
2018-05-29T14:16:50.596Z,3.13
2018-05-29T14:19:26.450Z,2.90
2018-05-29T14:22:02.101Z,3.03
2018-05-29T14:24:37.594Z,2.83
2018-05-29T14:27:12.725Z,2.63
2018-05-29T14:29:47.410Z,2.73
2018-05-29T14:32:23.005Z,2.70
2018-05-29T14:34:57.993Z,2.30
2018-05-29T14:37:32.716Z,1.80
2018-05-29T14:40:07.437Z,2.23
2018-05-29T14:42:42.389Z,2.60
2018-05-29T14:45:17.822Z,1.40
2018-05-29T14:47:53.071Z,2.70
2018-05-29T14:50:29.435Z,2.80
2018-05-29T14:53:04.465Z,2.63
2018-05-29T14:55:39.249Z,3.13
2018-05-29T14:58:14.085Z,3.17
2018-05-29T15:00:48.758Z,3.00
2018-05-29T15:03:24.714Z,2.57
2018-05-29T15:05:59.541Z,2.37
2018-05-29T15:08:35.139Z,2.90
2018-05-29T15:11:10.105Z,2.33
2018-05-29T15:13:44.852Z,2.60
2018-05-29T15:16:19.682Z,4.70
2018-05-29T15:18:55.385Z,2.67
2018-05-29T15:21:30.260Z,2.07
2018-05-29T15:24:05.098Z,1.90
2018-05-29T15:26:40.132Z,2.57
2018-05-29T15:29:15.779Z,2.00
2018-05-29T15:31:51.637Z,2.20
2018-05-29T15:34:26.669Z,2.27
2018-05-29T15:37:02.215Z,2.60
2018-05-29T15:39:38.071Z,2.57
2018-05-29T15:42:13.104Z,2.40
2018-05-29T15:44:47.938Z,2.00
2018-05-29T15:47:23.361Z,2.43
2018-05-29T15:49:58.312Z,2.70
2018-05-29T15:52:33.254Z,2.03
2018-05-29T15:55:08.896Z,2.10
2018-05-29T15:57:44.389Z,3.90
2018-05-29T16:00:19.333Z,1.80
2018-05-29T16:02:54.055Z,2.83
2018-05-29T16:05:29.102Z,1.57
2018-05-29T16:08:04.946Z,2.70
2018-05-29T16:10:41.199Z,2.10
2018-05-29T16:13:16.398Z,2.00
2018-05-29T16:15:53.034Z,2.17
2018-05-29T16:18:30.941Z,1.80
2018-05-29T16:21:06.179Z,2.43
2018-05-29T16:23:41.170Z,2.07
2018-05-29T16:26:17.477Z,1.97
2018-05-29T16:28:52.552Z,3.80
2018-05-29T16:31:28.180Z,1.90
2018-05-29T16:34:03.067Z,2.40
2018-05-29T16:36:38.846Z,2.87
2018-05-29T16:39:15.122Z,1.53
2018-05-29T16:41:50.054Z,2.00
2018-05-29T16:44:25.838Z,2.10
2018-05-29T16:47:01.932Z,2.10
2018-05-29T16:49:37.286Z,2.17
2018-05-29T16:52:12.150Z,2.10
2018-05-29T16:54:46.999Z,1.90
2018-05-29T16:57:23.356Z,2.43
2018-05-29T16:59:59.135Z,2.30
2018-05-29T17:02:34.090Z,2.47
2018-05-29T17:05:08.743Z,2.63
2018-05-29T17:07:43.545Z,2.50
2018-05-29T17:10:19.002Z,2.57
2018-05-29T17:12:53.937Z,2.80
2018-05-29T17:15:28.737Z,2.28
2018-05-29T17:18:04.647Z,2.07
2018-05-29T17:20:40.038Z,2.00
2018-05-29T17:23:14.833Z,2.07
2018-05-29T17:25:51.315Z,2.63
2018-05-29T17:28:26.084Z,2.10
2018-05-29T17:31:01.799Z,2.20
2018-05-29T17:33:37.467Z,1.93
2018-05-29T17:36:12.266Z,2.37
2018-05-29T17:38:48.043Z,2.17
2018-05-29T17:41:22.740Z,2.13
2018-05-29T17:43:57.791Z,3.40
2018-05-29T17:46:33.227Z,2.90
2018-05-29T17:49:07.951Z,1.90
2018-05-29T17:51:42.786Z,2.77
2018-05-29T17:54:19.672Z,2.00
2018-05-29T17:56:54.490Z,2.93
2018-05-29T17:59:30.953Z,2.70
2018-05-29T18:02:06.314Z,2.65
2018-05-29T18:04:42.671Z,3.40
2018-05-29T18:07:17.705Z,3.00
2018-05-29T18:09:53.382Z,2.23
2018-05-29T18:12:28.805Z,2.80
2018-05-29T18:15:04.049Z,3.00
2018-05-29T18:17:39.637Z,3.30
2018-05-29T18:20:14.721Z,2.17
2018-05-29T18:22:49.557Z,2.90
2018-05-29T18:25:25.207Z,3.43
2018-05-29T18:28:00.850Z,3.70
2018-05-29T18:30:35.990Z,2.57
2018-05-29T18:33:11.614Z,3.03
2018-05-29T18:35:48.111Z,2.47
2018-05-29T18:38:23.066Z,3.00
2018-05-29T18:40:57.871Z,3.20
2018-05-29T18:43:32.851Z,2.60
2018-05-29T18:46:09.627Z,2.63
2018-05-29T18:48:44.618Z,2.70
2018-05-29T18:51:20.508Z,2.77
2018-05-29T18:53:56.839Z,2.47
2018-05-29T18:56:31.869Z,2.23
2018-05-29T18:59:07.523Z,2.60
2018-05-29T19:01:43.172Z,3.03
2018-05-29T19:04:18.011Z,3.03
2018-05-29T19:06:52.935Z,2.80
2018-05-29T19:09:29.299Z,3.17
2018-05-29T19:12:05.257Z,3.67
2018-05-29T19:14:41.109Z,2.33
2018-05-29T19:17:16.000Z,3.80
2018-05-29T19:19:50.774Z,3.20
2018-05-29T19:22:25.465Z,3.10
2018-05-29T19:25:00.161Z,3.40
2018-05-29T19:27:35.432Z,3.10
2018-05-29T19:30:11.226Z,3.60
2018-05-29T19:32:47.695Z,4.57
2018-05-29T19:35:23.549Z,3.97
2018-05-29T19:37:59.808Z,2.70
2018-05-29T19:40:35.481Z,3.17
2018-05-29T19:43:12.016Z,3.00
2018-05-29T19:45:48.082Z,4.50
2018-05-29T19:48:23.065Z,3.60
2018-05-29T19:50:58.071Z,3.47
2018-05-29T19:53:33.502Z,3.50
2018-05-29T19:56:08.886Z,3.63
2018-05-29T19:58:44.665Z,4.40
2018-05-29T20:01:20.172Z,3.60
2018-05-29T20:03:55.385Z,3.10
2018-05-29T20:06:31.908Z,4.00
2018-05-29T20:09:07.619Z,3.20
2018-05-29T20:11:43.837Z,2.83
2018-05-29T20:14:18.900Z,3.30
2018-05-29T20:20:01.242Z,4.23
2018-05-29T20:22:38.204Z,3.43
2018-05-29T20:25:21.255Z,3.47
2018-05-29T20:27:59.269Z,2.33
2018-05-29T20:30:35.857Z,3.40
2018-05-29T20:33:11.546Z,2.87
2018-05-29T20:35:47.916Z,3.00
2018-05-29T20:38:23.356Z,2.93
2018-05-29T20:40:59.682Z,3.70
2018-05-29T20:43:35.334Z,3.07
2018-05-29T20:46:13.587Z,3.40
2018-05-29T20:48:49.805Z,3.00
2018-05-29T20:51:24.890Z,4.47
2018-05-29T20:54:00.897Z,3.37
2018-05-29T20:56:35.871Z,3.70
2018-05-29T20:59:11.130Z,4.33
2018-05-29T21:01:47.025Z,3.33
2018-05-29T21:04:22.473Z,3.47
2018-05-29T21:06:59.169Z,4.27
2018-05-29T21:09:33.909Z,2.90
2018-05-29T21:12:09.628Z,4.43
2018-05-29T21:14:46.442Z,3.17
2018-05-29T21:17:22.974Z,2.80
2018-05-29T21:19:58.079Z,3.77
2018-05-29T21:22:33.657Z,14.40
2018-05-29T21:25:09.925Z,12.93
2018-05-29T21:27:44.715Z,3.70
2018-05-29T21:30:20.812Z,3.33
2018-05-29T21:32:56.051Z,3.00
2018-05-29T21:35:31.926Z,3.43
2018-05-29T21:38:06.948Z,3.70
2018-05-29T21:40:41.775Z,3.33
2018-05-29T21:43:16.910Z,2.80
2018-05-29T21:45:51.795Z,3.13
2018-05-29T21:48:27.080Z,3.93
2018-05-29T21:51:03.143Z,2.97
2018-05-29T21:53:39.418Z,2.90
2018-05-29T21:56:15.470Z,2.93
2018-05-29T21:58:50.909Z,3.13
2018-05-29T22:01:25.706Z,2.53
2018-05-29T22:04:04.281Z,2.30
2018-05-29T22:06:40.466Z,2.70
2018-05-29T22:09:16.580Z,2.90
2018-05-29T22:11:51.620Z,3.03
2018-05-29T22:14:26.449Z,2.77
2018-05-29T22:17:02.502Z,2.77
2018-05-29T22:19:37.536Z,2.80
2018-05-29T22:22:12.984Z,2.57
2018-05-29T22:24:48.840Z,3.10
2018-05-29T22:27:23.605Z,3.30
2018-05-29T22:30:00.159Z,3.17
2018-05-29T22:32:36.401Z,3.20
2018-05-29T22:35:20.587Z,2.30
2018-05-29T22:37:56.447Z,2.50
2018-05-29T22:40:31.540Z,2.77
2018-05-29T22:43:06.371Z,2.30
2018-05-29T22:45:41.203Z,3.37
2018-05-29T22:48:16.197Z,3.10
2018-05-29T22:50:51.864Z,3.57
2018-05-29T22:53:27.150Z,2.27
2018-05-29T22:56:02.381Z,2.53
2018-05-29T22:58:38.056Z,4.17
2018-05-29T23:01:13.189Z,3.00
2018-05-29T23:03:49.117Z,3.93
2018-05-29T23:06:24.554Z,2.00
2018-05-29T23:09:00.627Z,3.40
2018-05-29T23:11:36.264Z,3.87
2018-05-29T23:14:13.478Z,3.27
2018-05-29T23:16:51.581Z,3.40
2018-05-29T23:19:27.778Z,3.70
2018-05-29T23:22:02.961Z,3.10
2018-05-29T23:24:39.963Z,2.77
2018-05-29T23:27:16.910Z,3.10
2018-05-29T23:29:51.970Z,2.20
2018-05-29T23:32:28.666Z,2.80
2018-05-29T23:35:04.457Z,2.37
2018-05-29T23:37:41.771Z,2.80
2018-05-29T23:40:18.058Z,2.57
2018-05-29T23:42:53.740Z,3.10
2018-05-29T23:45:29.230Z,2.87
2018-05-29T23:48:05.062Z,2.80
2018-05-29T23:50:40.840Z,2.73
2018-05-29T23:53:17.501Z,2.50
2018-05-29T23:55:53.451Z,3.17
2018-05-29T23:58:28.813Z,2.23
